Time;durP1;ratioP1;P1;durP2;ratioP2;P2;SDS_P1;SDS_P2;PMS_P1;PMS_P2;Temp;Humidity;BMP_temperature;BMP_pressure;BME280_temperature;BME280_humidity;BME280_pressure;Samples;Min_cycle;Max_cycle;Signal;HPM_P1;HPM_P2
2023/12/23 00:01:12;;;;;;;7.37;0.77;;;;;;;3.48;100.00;99553.03;6029323;28;20061;-72
2023/12/23 00:04:07;;;;;;;6.90;0.80;;;;;;;3.33;100.00;99549.94;6030011;28;20065;-72
2023/12/23 00:07:03;;;;;;;10.17;1.40;;;;;;;3.32;100.00;99569.22;6028085;28;20034;-72
2023/12/23 00:09:58;;;;;;;5.47;0.95;;;;;;;3.26;100.00;99568.91;6027692;28;20065;-73
2023/12/23 00:12:54;;;;;;;4.32;1.35;;;;;;;3.24;100.00;99592.59;6029629;28;20034;-71
2023/12/23 00:15:49;;;;;;;5.80;0.75;;;;;;;3.20;100.00;99595.63;6027645;28;20038;-73
2023/12/23 00:18:44;;;;;;;6.37;1.07;;;;;;;3.14;100.00;99583.84;6028583;28;20038;-72
2023/12/23 00:21:40;;;;;;;2.57;0.70;;;;;;;3.10;100.00;99611.22;6028554;28;20454;-73
2023/12/23 00:24:36;;;;;;;3.70;0.77;;;;;;;3.02;100.00;99618.09;6028215;28;20027;-72
2023/12/23 00:27:31;;;;;;;6.35;0.82;;;;;;;2.97;100.00;99602.72;6026931;28;20321;-72
2023/12/23 00:30:28;;;;;;;10.43;1.10;;;;;;;3.00;100.00;99623.44;6028187;28;20044;-71
2023/12/23 00:33:23;;;;;;;4.07;0.43;;;;;;;2.99;100.00;99633.06;6028977;28;20046;-73
2023/12/23 00:36:18;;;;;;;6.32;0.90;;;;;;;3.05;100.00;99639.59;6025682;28;20030;-73
2023/12/23 00:39:15;;;;;;;5.37;1.10;;;;;;;2.94;100.00;99629.16;6024206;28;20038;-73
2023/12/23 00:42:10;;;;;;;4.53;0.90;;;;;;;3.00;100.00;99639.13;6030725;28;20030;-73
2023/12/23 00:45:06;;;;;;;3.33;0.63;;;;;;;2.90;100.00;99644.31;6026815;28;20081;-74
2023/12/23 00:48:02;;;;;;;4.65;0.63;;;;;;;2.84;100.00;99662.28;6025461;28;20026;-73
2023/12/23 00:50:57;;;;;;;10.80;1.25;;;;;;;2.83;100.00;99645.72;6027855;28;20033;-72
2023/12/23 00:53:53;;;;;;;5.00;1.10;;;;;;;2.81;100.00;99662.53;6028249;28;20065;-73
2023/12/23 00:56:50;;;;;;;6.45;0.80;;;;;;;2.82;100.00;99685.13;6028639;28;20042;-72
2023/12/23 00:59:46;;;;;;;5.80;1.15;;;;;;;2.80;100.00;99681.81;6025476;28;20033;-72
2023/12/23 01:02:42;;;;;;;4.65;0.65;;;;;;;2.80;100.00;99693.09;6027764;28;20617;-72
2023/12/23 01:05:37;;;;;;;4.27;0.90;;;;;;;2.74;100.00;99703.25;6025470;28;20038;-72
2023/12/23 01:08:33;;;;;;;1.53;0.70;;;;;;;2.74;100.00;99703.25;6026883;28;20112;-73
2023/12/23 01:11:28;;;;;;;3.38;0.80;;;;;;;2.76;100.00;99717.03;6029988;28;20084;-73
2023/12/23 01:14:24;;;;;;;5.32;0.90;;;;;;;2.66;100.00;99713.47;6024753;28;20042;-72
2023/12/23 01:17:19;;;;;;;7.03;0.80;;;;;;;2.68;100.00;99725.50;6025742;28;20074;-73
2023/12/23 01:20:14;;;;;;;3.33;0.70;;;;;;;2.65;100.00;99730.13;6026991;28;20653;-73
2023/12/23 01:23:10;;;;;;;6.97;1.03;;;;;;;2.54;100.00;99735.34;6028442;28;20084;-72
2023/12/23 01:26:05;;;;;;;3.25;0.52;;;;;;;2.63;100.00;99739.88;6025950;28;20620;-71
2023/12/23 01:29:01;;;;;;;6.65;0.90;;;;;;;2.54;100.00;99738.81;6038985;28;20027;-74
2023/12/23 01:31:56;;;;;;;5.40;1.20;;;;;;;2.69;100.00;99749.88;6029287;28;20046;-73
2023/12/23 01:34:51;;;;;;;7.20;1.10;;;;;;;2.75;100.00;99752.81;6025586;28;20085;-74
2023/12/23 01:37:47;;;;;;;8.53;1.30;;;;;;;2.88;100.00;99758.75;6027041;28;20049;-73
2023/12/23 01:40:43;;;;;;;3.78;1.00;;;;;;;2.97;100.00;99754.59;6031133;28;20084;-72
2023/12/23 01:43:38;;;;;;;5.25;0.90;;;;;;;2.98;100.00;99764.13;6030451;28;20034;-72
2023/12/23 01:46:34;;;;;;;17.33;1.25;;;;;;;2.88;100.00;99758.75;6030051;28;20111;-72
2023/12/23 01:49:30;;;;;;;2.55;0.63;;;;;;;2.82;100.00;99764.50;6031144;28;20038;-72
2023/12/23 01:52:25;;;;;;;5.70;1.20;;;;;;;2.84;100.00;99772.22;6033696;28;20030;-73
2023/12/23 01:55:21;;;;;;;7.88;1.15;;;;;;;2.77;100.00;99771.84;6029897;28;20057;-72
2023/12/23 01:58:17;;;;;;;6.07;1.00;;;;;;;2.80;100.00;99770.81;6030247;28;20060;-73
2023/12/23 02:01:12;;;;;;;3.10;0.90;;;;;;;2.78;100.00;99757.00;6033864;28;20101;-73
2023/12/23 02:04:07;;;;;;;3.97;0.83;;;;;;;2.81;100.00;99775.06;6029074;28;20048;-73
2023/12/23 02:07:03;;;;;;;8.10;1.33;;;;;;;2.77;100.00;99769.25;6026764;28;20027;-73
2023/12/23 02:09:59;;;;;;;4.43;1.40;;;;;;;2.78;100.00;99777.94;6029776;28;20109;-73
2023/12/23 02:13:11;;;;;;;3.40;1.45;;;;;;;2.81;100.00;99777.69;6027562;28;20088;-73
2023/12/23 02:16:08;;;;;;;5.20;1.13;;;;;;;2.80;100.00;99770.81;6027157;28;20026;-73
2023/12/23 02:19:04;;;;;;;3.15;0.70;;;;;;;2.79;100.00;99763.91;6026049;28;20029;-73
2023/12/23 02:21:59;;;;;;;15.15;1.65;;;;;;;2.74;100.00;99772.13;6031321;28;20038;-73
2023/12/23 02:24:55;;;;;;;5.97;1.10;;;;;;;2.68;100.00;99756.06;6025666;28;20531;-74
2023/12/23 02:27:53;;;;;;;14.00;1.50;;;;;;;2.73;100.00;99753.91;6029660;28;20492;-72
2023/12/23 02:30:50;;;;;;;4.32;0.82;;;;;;;2.76;100.00;99764.13;6028412;28;20080;-72
2023/12/23 02:33:47;;;;;;;3.72;0.88;;;;;;;2.80;100.00;99776.84;6029319;28;20061;-72
2023/12/23 02:36:42;;;;;;;5.55;0.93;;;;;;;2.80;100.00;99765.56;6025718;28;20543;-72
2023/12/23 02:39:37;;;;;;;7.80;0.90;;;;;;;2.76;100.00;99758.91;6028452;28;20042;-72
2023/12/23 02:42:33;;;;;;;6.60;1.03;;;;;;;2.80;100.00;99771.63;6028966;28;20030;-73
2023/12/23 02:45:29;;;;;;;4.13;1.07;;;;;;;2.79;100.00;99774.38;6027181;28;20062;-72
2023/12/23 02:48:25;;;;;;;7.47;1.15;;;;;;;2.85;100.00;99771.28;6027740;28;20339;-71
2023/12/23 02:51:20;;;;;;;3.93;0.90;;;;;;;2.86;100.00;99760.69;6027228;28;20030;-72
2023/12/23 02:54:16;;;;;;;6.90;1.23;;;;;;;2.91;100.00;99768.16;6028914;28;20489;-72
2023/12/23 02:57:11;;;;;;;8.80;1.00;;;;;;;3.03;100.00;99769.81;6025049;28;20022;-74
2023/12/23 03:00:07;;;;;;;7.23;1.33;;;;;;;3.00;100.00;99752.56;6027547;28;20041;-72
2023/12/23 03:03:03;;;;;;;8.95;1.40;;;;;;;3.08;100.00;99780.75;6027812;28;20414;-73
2023/12/23 03:05:58;;;;;;;3.78;0.93;;;;;;;3.11;100.00;99763.97;6030204;28;20088;-72
2023/12/23 03:08:53;;;;;;;7.63;1.43;;;;;;;3.15;100.00;99760.16;6029067;28;20034;-72
2023/12/23 03:11:52;;;;;;;5.30;0.80;;;;;;;3.27;100.00;99760.00;6027073;28;20029;-73
2023/12/23 03:14:47;;;;;;;9.38;1.20;;;;;;;3.30;100.00;99751.91;6026658;28;20034;-74
2023/12/23 03:17:43;;;;;;;7.80;1.10;;;;;;;3.29;100.00;99747.59;6027551;28;20535;-72
2023/12/23 03:20:38;;;;;;;10.30;1.00;;;;;;;3.30;100.00;99749.28;6027976;28;20026;-73
2023/12/23 03:23:34;;;;;;;10.68;1.20;;;;;;;3.37;100.00;99755.66;6026585;28;20265;-73
2023/12/23 03:26:29;;;;;;;8.68;1.75;;;;;;;3.45;100.00;99758.50;6027612;28;20030;-72
2023/12/23 03:29:25;;;;;;;5.30;0.80;;;;;;;3.50;100.00;99745.88;6027641;28;20057;-72
2023/12/23 03:32:20;;;;;;;23.70;1.30;;;;;;;3.55;100.00;99748.97;6027251;28;20030;-72
2023/12/23 03:35:15;;;;;;;9.00;1.17;;;;;;;3.57;100.00;99741.78;6025965;28;20034;-72
2023/12/23 03:38:11;;;;;;;7.37;1.00;;;;;;;3.65;100.00;99742.94;6027208;28;20269;-72
2023/12/23 03:41:06;;;;;;;5.43;1.20;;;;;;;3.62;100.00;99746.66;6026909;28;20737;-72
2023/12/23 03:44:01;;;;;;;6.67;1.53;;;;;;;3.56;100.00;99750.59;6029156;28;20485;-72
2023/12/23 03:46:57;;;;;;;10.65;1.80;;;;;;;3.53;100.00;99761.34;6023846;28;20022;-72
2023/12/23 03:49:52;;;;;;;5.43;1.73;;;;;;;3.53;100.00;99761.34;6026667;28;20042;-72
2023/12/23 03:52:47;;;;;;;7.73;2.40;;;;;;;3.55;100.00;99746.34;6026961;28;20285;-72
2023/12/23 03:55:43;;;;;;;9.10;1.53;;;;;;;3.53;100.00;99755.28;6025741;28;20105;-72
2023/12/23 03:58:39;;;;;;;6.90;0.90;;;;;;;3.49;100.00;99746.81;6026668;28;20370;-73
2023/12/23 04:01:35;;;;;;;21.58;4.07;;;;;;;3.53;100.00;99748.22;6026282;28;20022;-71
2023/12/23 04:04:31;;;;;;;12.75;2.35;;;;;;;3.61;100.00;99777.25;6026240;28;20081;-71
2023/12/23 04:07:26;;;;;;;5.32;1.25;;;;;;;3.50;100.00;99766.84;6026152;28;20116;-72
2023/12/23 04:10:22;;;;;;;13.73;1.47;;;;;;;3.30;100.00;99749.28;6029095;28;20506;-71
2023/12/23 04:13:17;;;;;;;8.97;1.30;;;;;;;3.21;100.00;99749.16;6030477;28;20026;-71
2023/12/23 04:16:13;;;;;;;9.45;1.52;;;;;;;3.11;100.00;99749.09;6029224;28;20285;-70
2023/12/23 04:19:08;;;;;;;7.53;0.97;;;;;;;3.00;100.00;99736.84;6028719;28;20049;-71
2023/12/23 04:22:04;;;;;;;5.10;1.00;;;;;;;2.96;100.00;99734.63;6027256;28;20026;-72
2023/12/23 04:24:59;;;;;;;9.67;1.03;;;;;;;2.85;100.00;99742.47;6032909;28;20069;-71
2023/12/23 04:27:55;;;;;;;8.80;1.13;;;;;;;2.82;100.00;99737.50;6028992;28;20026;-71
2023/12/23 04:30:54;;;;;;;8.52;1.23;;;;;;;2.76;100.00;99730.94;6029328;28;20273;-71
2023/12/23 04:33:50;;;;;;;9.52;1.70;;;;;;;2.77;100.00;99727.34;6028779;28;20041;-71
2023/12/23 04:36:45;;;;;;;13.83;1.40;;;;;;;2.69;100.00;99714.03;6031855;28;20042;-71
2023/12/23 04:39:40;;;;;;;8.80;1.37;;;;;;;2.72;100.00;99721.66;6028947;28;20034;-72
2023/12/23 04:42:35;;;;;;;4.77;0.97;;;;;;;2.76;100.00;99724.88;6021475;28;20466;-71
2023/12/23 04:45:31;;;;;;;4.30;0.90;;;;;;;2.66;100.00;99723.94;6035423;28;20026;-71
2023/12/23 04:48:26;;;;;;;7.93;0.93;;;;;;;2.69;100.00;99721.91;6029633;28;20041;-72
2023/12/23 04:51:21;;;;;;;9.55;1.83;;;;;;;2.64;100.00;99723.22;6028999;28;20049;-71
2023/12/23 04:54:17;;;;;;;11.37;1.10;;;;;;;2.66;100.00;99718.72;6032237;28;20542;-72
2023/12/23 04:57:12;;;;;;;9.40;1.47;;;;;;;2.72;100.00;99726.06;6027589;28;20045;-71
2023/12/23 05:00:08;;;;;;;8.00;1.00;;;;;;;2.68;100.00;99729.88;6028985;28;20030;-71
2023/12/23 05:03:03;;;;;;;6.18;1.50;;;;;;;2.74;100.00;99732.03;6027525;28;20034;-71
2023/12/23 05:05:59;;;;;;;5.28;0.80;;;;;;;2.71;100.00;99714.78;6030866;28;20030;-72
2023/12/23 05:08:54;;;;;;;14.70;1.47;;;;;;;2.70;100.00;99707.03;6028458;28;20034;-71
2023/12/23 05:11:49;;;;;;;6.57;1.10;;;;;;;2.68;100.00;99698.47;6026191;28;20046;-71
2023/12/23 05:14:45;;;;;;;4.90;1.23;;;;;;;2.71;100.00;99704.31;6030284;28;20030;-71
2023/12/23 05:17:40;;;;;;;6.37;1.23;;;;;;;2.73;100.00;99698.94;6032926;28;20088;-71
2023/12/23 05:20:36;;;;;;;10.50;1.45;;;;;;;2.83;100.00;99699.88;6031106;28;20069;-72
2023/12/23 05:23:31;;;;;;;13.20;1.97;;;;;;;2.85;100.00;99696.16;6032240;28;20053;-70
2023/12/23 05:26:26;;;;;;;14.53;1.87;;;;;;;2.88;100.00;99695.94;6034158;28;20073;-70
2023/12/23 05:29:21;;;;;;;10.83;1.70;;;;;;;2.92;100.00;99686.06;6032869;28;20038;-71
2023/12/23 05:32:17;;;;;;;10.83;1.73;;;;;;;2.98;100.00;99691.66;6032751;28;20081;-71
2023/12/23 05:35:12;;;;;;;5.63;1.40;;;;;;;2.94;100.00;99681.53;6034356;28;20100;-72
2023/12/23 05:38:07;;;;;;;5.73;1.30;;;;;;;2.96;100.00;99661.31;6034885;28;20064;-72
2023/12/23 05:41:03;;;;;;;8.00;1.30;;;;;;;2.95;100.00;99670.94;6031825;28;20280;-72
2023/12/23 05:43:58;;;;;;;8.10;1.65;;;;;;;3.01;100.00;99674.84;6036011;28;20073;-71
2023/12/23 05:46:54;;;;;;;5.13;1.13;;;;;;;3.02;100.00;99658.16;6036475;28;20027;-71
2023/12/23 05:49:49;;;;;;;4.73;1.03;;;;;;;3.07;100.00;99666.50;6032371;28;20044;-72
2023/12/23 05:52:44;;;;;;;5.90;1.20;;;;;;;3.05;100.00;99652.69;6031971;28;20030;-72
2023/12/23 05:55:40;;;;;;;9.00;1.30;;;;;;;3.07;100.00;99648.19;6034531;28;20357;-72
2023/12/23 05:58:35;;;;;;;6.37;0.90;;;;;;;3.10;100.00;99661.00;6029424;28;20037;-72
2023/12/23 06:01:30;;;;;;;6.70;1.00;;;;;;;3.02;100.00;99652.94;6030494;28;20625;-72
2023/12/23 06:04:26;;;;;;;6.87;1.73;;;;;;;2.90;100.00;99644.31;6028175;28;20282;-72
2023/12/23 06:07:25;;;;;;;3.53;0.77;;;;;;;2.84;100.00;99634.31;6033290;28;20088;-72
2023/12/23 06:10:20;;;;;;;6.72;0.95;;;;;;;2.90;100.00;99648.69;6030306;28;20137;-72
2023/12/23 06:13:16;;;;;;;5.43;1.10;;;;;;;2.81;100.00;99625.88;6033173;28;20428;-72
2023/12/23 06:16:11;;;;;;;6.30;0.87;;;;;;;2.85;100.00;99627.31;6035342;28;20517;-72
2023/12/23 06:19:06;;;;;;;10.13;1.40;;;;;;;2.91;100.00;99626.78;6031303;28;20502;-72
2023/12/23 06:22:02;;;;;;;4.82;1.25;;;;;;;3.02;100.00;99612.84;6026958;28;20026;-71
2023/12/23 06:24:57;;;;;;;5.15;0.80;;;;;;;3.07;100.00;99611.53;6035298;28;20030;-71
2023/12/23 06:27:52;;;;;;;5.30;0.97;;;;;;;3.12;100.00;99598.03;6031300;28;20150;-72
2023/12/23 06:30:48;;;;;;;7.90;1.05;;;;;;;3.10;100.00;99595.53;6030862;28;20030;-72
2023/12/23 06:33:43;;;;;;;11.80;0.83;;;;;;;3.06;100.00;99586.28;6034021;28;20038;-71
2023/12/23 06:36:38;;;;;;;6.03;1.43;;;;;;;3.07;100.00;99580.09;6032713;28;20379;-71
2023/12/23 06:39:34;;;;;;;6.40;0.90;;;;;;;3.05;100.00;99573.28;6030101;28;20276;-70
2023/12/23 06:42:29;;;;;;;3.80;0.60;;;;;;;3.12;100.00;99575.31;5990487;28;20113;-70
2023/12/23 06:45:25;;;;;;;2.97;0.50;;;;;;;3.07;100.00;99566.16;6019251;28;20053;-70
2023/12/23 06:48:20;;;;;;;4.20;0.60;;;;;;;3.13;100.00;99576.94;6007726;28;20023;-70
2023/12/23 06:51:16;;;;;;;3.95;0.65;;;;;;;3.11;100.00;99567.56;6004679;28;20290;-71
2023/12/23 06:54:11;;;;;;;2.83;0.80;;;;;;;3.13;100.00;99574.31;6005230;28;20042;-70
2023/12/23 06:57:06;;;;;;;4.27;0.60;;;;;;;3.07;100.00;99555.69;6010902;28;20022;-70
2023/12/23 07:00:02;;;;;;;4.07;0.70;;;;;;;3.09;100.00;99561.63;6013918;28;20746;-71
2023/12/23 07:02:57;;;;;;;4.75;0.90;;;;;;;3.06;100.00;99554.00;6003871;28;20058;-71
2023/12/23 07:05:53;;;;;;;1.13;0.47;;;;;;;3.09;100.00;99566.84;6010931;28;20042;-71
2023/12/23 07:08:48;;;;;;;2.70;0.80;;;;;;;3.07;100.00;99568.78;6007655;28;20037;-72
2023/12/23 07:11:44;;;;;;;2.40;0.52;;;;;;;3.06;100.00;99567.09;6004908;28;20031;-71
2023/12/23 07:14:41;;;;;;;1.92;0.45;;;;;;;3.04;100.00;99567.25;6003699;28;20062;-71
2023/12/23 07:17:36;;;;;;;3.05;0.68;;;;;;;3.03;100.00;99565.56;6003731;28;20034;-71
2023/12/23 07:20:31;;;;;;;2.17;0.63;;;;;;;2.95;100.00;99549.66;6003227;28;20058;-71
2023/12/23 07:23:27;;;;;;;2.13;0.53;;;;;;;3.04;100.00;99569.03;6004372;28;20078;-71
2023/12/23 07:26:22;;;;;;;1.83;0.50;;;;;;;2.98;100.00;99555.50;6005042;28;20098;-71
2023/12/23 07:29:19;;;;;;;3.92;0.55;;;;;;;2.97;100.00;99555.59;6002160;28;20062;-71
2023/12/23 07:32:14;;;;;;;1.67;0.30;;;;;;;2.91;100.00;99556.94;6002227;28;20038;-71
2023/12/23 07:35:10;;;;;;;4.27;0.53;;;;;;;2.88;100.00;99546.72;6004686;28;20035;-71
2023/12/23 07:38:05;;;;;;;1.33;0.20;;;;;;;2.85;100.00;99539.13;6005122;28;20033;-71
2023/12/23 07:41:01;;;;;;;2.17;0.63;;;;;;;2.75;100.00;99527.75;6000131;28;20038;-71
2023/12/23 07:43:56;;;;;;;2.47;0.40;;;;;;;2.78;100.00;99539.75;6000608;28;20589;-71
2023/12/23 07:46:51;;;;;;;3.08;0.32;;;;;;;2.79;100.00;99542.25;6005769;28;20030;-71
2023/12/23 07:49:47;;;;;;;0.53;0.30;;;;;;;2.76;100.00;99539.06;5999626;28;20088;-71
2023/12/23 07:52:42;;;;;;;1.83;0.40;;;;;;;2.74;100.00;99533.13;6004437;28;20104;-71
2023/12/23 07:55:39;;;;;;;0.57;0.33;;;;;;;2.74;100.00;99530.50;6004548;28;20046;-71
2023/12/23 07:58:34;;;;;;;1.00;0.40;;;;;;;2.73;100.00;99536.69;6004480;28;20038;-70
2023/12/23 08:01:32;;;;;;;1.92;0.60;;;;;;;2.71;100.00;99525.50;6002093;28;20041;-72
2023/12/23 08:04:27;;;;;;;3.25;0.30;;;;;;;2.70;100.00;99524.69;6001600;28;20038;-70
2023/12/23 08:07:22;;;;;;;1.13;0.50;;;;;;;2.67;100.00;99524.09;6008912;28;20031;-71
2023/12/23 08:10:18;;;;;;;1.77;0.40;;;;;;;2.67;100.00;99518.84;6004022;28;20492;-70
2023/12/23 08:13:13;;;;;;;1.10;0.30;;;;;;;2.72;100.00;99535.00;6004094;28;20042;-71
2023/12/23 08:16:08;;;;;;;2.83;0.50;;;;;;;2.72;100.00;99530.59;6009608;28;20846;-71
2023/12/23 08:19:03;;;;;;;2.20;0.40;;;;;;;2.75;100.00;99532.13;6011096;28;20042;-71
2023/12/23 08:21:59;;;;;;;1.93;0.73;;;;;;;2.70;100.00;99518.59;6006762;28;20037;-72
2023/12/23 08:24:55;;;;;;;0.63;0.30;;;;;;;2.76;100.00;99525.97;6002279;28;20073;-71
2023/12/23 08:27:50;;;;;;;2.67;0.60;;;;;;;2.75;100.00;99525.13;6010965;28;20034;-72
2023/12/23 08:30:45;;;;;;;0.40;0.20;;;;;;;2.77;100.00;99535.50;6003897;28;20069;-73
2023/12/23 08:33:41;;;;;;;5.20;0.70;;;;;;;2.73;100.00;99529.66;6006289;28;20084;-72
2023/12/23 08:36:36;;;;;;;1.30;0.63;;;;;;;2.71;100.00;99515.03;6010846;28;20093;-72
2023/12/23 08:39:31;;;;;;;4.32;1.00;;;;;;;2.71;100.00;99515.03;6006833;28;20816;-73
2023/12/23 08:42:27;;;;;;;2.10;0.97;;;;;;;2.68;100.00;99510.06;6001597;28;20027;-73
2023/12/23 08:45:22;;;;;;;2.37;1.10;;;;;;;2.67;100.00;99518.84;6011968;28;20042;-72
2023/12/23 08:48:17;;;;;;;1.73;1.00;;;;;;;2.60;100.00;99508.09;6007357;28;20035;-72
2023/12/23 08:51:13;;;;;;;2.77;0.80;;;;;;;2.60;100.00;99502.00;6004753;28;20104;-72
2023/12/23 08:54:09;;;;;;;2.63;1.10;;;;;;;2.59;100.00;99511.63;6002694;28;20274;-72
2023/12/23 08:57:04;;;;;;;3.57;0.77;;;;;;;2.65;100.00;99516.38;6006643;28;20138;-71
2023/12/23 09:00:00;;;;;;;2.57;0.87;;;;;;;2.64;100.00;99503.41;6003179;28;20034;-72
2023/12/23 09:02:55;;;;;;;8.50;1.10;;;;;;;2.69;100.00;99515.16;6005776;28;20035;-72
2023/12/23 09:05:50;;;;;;;2.57;0.80;;;;;;;2.70;100.00;99532.53;6011934;28;20046;-71
2023/12/23 09:08:46;;;;;;;3.93;1.13;;;;;;;2.70;100.00;99519.44;6001997;28;20027;-72
2023/12/23 09:11:44;;;;;;;2.90;0.70;;;;;;;2.72;100.00;99522.75;6002614;28;20046;-72
2023/12/23 09:14:39;;;;;;;2.55;0.85;;;;;;;2.73;100.00;99532.28;6005818;28;20033;-72
2023/12/23 09:17:35;;;;;;;0.87;0.57;;;;;;;2.68;100.00;99531.00;6010223;28;20031;-73
2023/12/23 09:20:31;;;;;;;1.27;0.50;;;;;;;2.70;100.00;99542.16;6006751;28;20019;-71
2023/12/23 09:23:26;;;;;;;1.65;0.70;;;;;;;2.74;100.00;99533.97;6005213;28;20043;-73
2023/12/23 09:26:24;;;;;;;1.97;0.60;;;;;;;2.75;100.00;99537.38;6011965;28;20030;-73
2023/12/23 09:29:19;;;;;;;3.08;0.60;;;;;;;2.72;100.00;99521.91;6002139;28;20031;-72
2023/12/23 09:32:15;;;;;;;0.80;0.60;;;;;;;2.72;100.00;99532.38;6002866;28;20055;-71
2023/12/23 09:35:10;;;;;;;0.87;0.50;;;;;;;2.65;100.00;99520.78;6005512;28;20271;-71
2023/12/23 09:38:05;;;;;;;0.70;0.33;;;;;;;2.65;100.00;99536.47;6014669;28;20030;-72
2023/12/23 09:41:00;;;;;;;1.27;0.50;;;;;;;2.58;100.00;99545.78;6003203;28;20065;-72
2023/12/23 09:43:56;;;;;;;2.37;0.47;;;;;;;2.55;100.00;99553.88;6005668;28;20185;-71
2023/12/23 09:46:51;;;;;;;0.40;0.22;;;;;;;2.54;100.00;99552.22;6008130;28;20076;-73
2023/12/23 09:49:47;;;;;;;1.73;0.25;;;;;;;2.52;100.00;99552.34;6002990;28;20034;-72
2023/12/23 09:52:43;;;;;;;1.50;0.37;;;;;;;2.48;100.00;99557.94;6002901;28;20042;-72
2023/12/23 09:55:39;;;;;;;1.92;0.50;;;;;;;2.42;100.00;99557.47;6007069;28;20634;-71
2023/12/23 09:58:35;;;;;;;1.65;0.50;;;;;;;2.47;100.00;99564.97;6006012;28;20038;-72
2023/12/23 10:01:30;;;;;;;1.47;0.60;;;;;;;2.40;100.00;99554.16;6007714;28;20035;-71
2023/12/23 10:04:27;;;;;;;0.87;0.50;;;;;;;2.48;100.00;99565.78;6008030;28;20034;-73
2023/12/23 10:07:22;;;;;;;0.52;0.32;;;;;;;2.47;100.00;99566.75;6011272;28;20026;-71
2023/12/23 10:10:18;;;;;;;1.90;0.60;;;;;;;2.48;100.00;99566.63;6007188;28;20034;-71
2023/12/23 10:13:13;;;;;;;1.87;0.60;;;;;;;2.49;100.00;99567.44;6008741;28;20390;-71
2023/12/23 10:16:08;;;;;;;1.33;0.47;;;;;;;2.40;100.00;99564.63;6009727;28;20465;-71
2023/12/23 10:19:04;;;;;;;1.67;0.37;;;;;;;2.48;100.00;99571.84;6012574;28;20276;-72
2023/12/23 10:21:59;;;;;;;1.00;0.40;;;;;;;2.48;100.00;99573.63;6009722;28;20026;-72
2023/12/23 10:24:56;;;;;;;0.88;0.55;;;;;;;2.46;100.00;99570.31;6010610;28;20276;-72
2023/12/23 10:27:54;;;;;;;1.65;0.70;;;;;;;2.44;100.00;99570.44;6014653;28;20446;-71
2023/12/23 10:30:50;;;;;;;1.00;0.50;;;;;;;2.35;100.00;99561.53;6003370;28;20058;-73
2023/12/23 10:33:49;;;;;;;1.15;0.52;;;;;;;2.35;100.00;99565.94;6007576;28;20072;-73
2023/12/23 10:36:45;;;;;;;1.08;0.50;;;;;;;2.36;100.00;99578.09;6005074;28;20031;-72
2023/12/23 10:39:52;;;;;;;0.90;0.57;;;;;;;2.31;100.00;99570.56;6010906;28;20494;-71
2023/12/23 10:42:48;;;;;;;0.32;0.30;;;;;;;2.23;100.00;99578.19;6008295;28;20489;-71
2023/12/23 10:45:47;;;;;;;1.75;0.43;;;;;;;2.12;100.00;99580.03;6009978;28;20039;-72
2023/12/23 10:48:42;;;;;;;1.17;0.60;;;;;;;2.10;100.00;99582.75;6008014;28;20093;-71
2023/12/23 10:51:38;;;;;;;1.10;0.60;;;;;;;2.11;100.00;99578.34;6006599;28;20375;-72
2023/12/23 10:54:35;;;;;;;0.93;0.40;;;;;;;2.09;100.00;99578.44;6006071;28;20426;-72
2023/12/23 10:57:31;;;;;;;1.23;0.47;;;;;;;2.02;100.00;99581.66;6015703;28;20076;-72
2023/12/23 11:00:26;;;;;;;0.75;0.40;;;;;;;1.89;100.00;99568.75;6008698;28;20042;-73
2023/12/23 11:03:23;;;;;;;0.82;0.40;;;;;;;1.96;100.00;99567.31;6007183;28;20031;-72
2023/12/23 11:06:18;;;;;;;1.20;0.47;;;;;;;1.97;100.00;99576.81;6007583;28;20109;-72
2023/12/23 11:09:15;;;;;;;0.75;0.40;;;;;;;1.93;100.00;99575.38;6010102;28;20034;-71
2023/12/23 11:12:11;;;;;;;1.42;0.43;;;;;;;2.05;100.00;99584.88;6006146;28;20027;-72
2023/12/23 11:15:07;;;;;;;0.82;0.40;;;;;;;2.10;100.00;99582.75;6009788;28;20077;-73
2023/12/23 11:18:02;;;;;;;0.65;0.43;;;;;;;2.12;100.00;99580.03;6015102;28;20042;-73
2023/12/23 11:20:58;;;;;;;1.50;0.63;;;;;;;2.07;100.00;99572.53;6012393;28;20474;-72
2023/12/23 11:23:53;;;;;;;0.68;0.45;;;;;;;2.18;100.00;99572.50;6010758;28;20457;-73
2023/12/23 11:26:53;;;;;;;1.00;0.45;;;;;;;2.23;100.00;99570.34;6012592;28;20046;-73
2023/12/23 11:29:48;;;;;;;2.17;0.80;;;;;;;2.32;100.00;99576.66;6014258;28;20047;-72
2023/12/23 11:32:44;;;;;;;5.33;0.90;;;;;;;2.28;100.00;99570.81;6014588;28;20116;-73
2023/12/23 11:35:58;;;;;;;2.75;0.80;;;;;;;2.25;100.00;99576.31;6018913;28;20106;-73
2023/12/23 11:38:55;;;;;;;2.17;0.93;;;;;;;2.32;100.00;99582.72;6013440;28;20046;-73
2023/12/23 11:41:51;;;;;;;0.60;0.60;;;;;;;2.32;100.00;99587.94;6005469;28;20502;-72
2023/12/23 11:44:46;;;;;;;1.77;1.00;;;;;;;2.40;100.00;99585.53;6004601;28;20042;-72
2023/12/23 11:47:42;;;;;;;2.37;1.07;;;;;;;2.45;100.00;99586.97;6006867;28;20089;-73
2023/12/23 11:50:37;;;;;;;1.70;0.82;;;;;;;2.46;100.00;99591.25;6005907;28;20034;-74
2023/12/23 11:53:33;;;;;;;2.33;1.00;;;;;;;2.47;100.00;99591.13;6004599;28;20494;-73
2023/12/23 11:56:29;;;;;;;1.75;0.88;;;;;;;2.52;100.00;99596.00;6007049;28;20129;-72
2023/12/23 11:59:24;;;;;;;1.27;0.80;;;;;;;2.59;100.00;99607.63;6010125;28;20030;-71
2023/12/23 12:02:19;;;;;;;1.17;0.70;;;;;;;2.64;100.00;99613.31;6000838;28;20049;-71
2023/12/23 12:05:15;;;;;;;2.03;0.73;;;;;;;2.65;100.00;99604.50;6004416;28;20041;-70
2023/12/23 12:08:10;;;;;;;1.50;0.80;;;;;;;2.66;100.00;99608.81;6007070;28;20615;-72
2023/12/23 12:11:06;;;;;;;1.42;0.80;;;;;;;2.65;100.00;99600.13;6002421;28;20133;-72
2023/12/23 12:14:03;;;;;;;2.53;1.05;;;;;;;2.77;100.00;99604.34;6002394;28;20031;-71
2023/12/23 12:16:59;;;;;;;1.40;1.05;;;;;;;2.73;100.00;99602.09;6002864;28;20034;-71
2023/12/23 12:19:54;;;;;;;2.05;0.93;;;;;;;2.75;100.00;99600.19;6005691;28;20027;-71
2023/12/23 12:22:49;;;;;;;1.50;1.03;;;;;;;2.82;100.00;99606.59;6003071;28;20048;-72
2023/12/23 12:25:49;;;;;;;2.10;0.85;;;;;;;2.81;100.00;99608.38;6001372;28;20085;-71
2023/12/23 12:28:44;;;;;;;2.38;1.05;;;;;;;2.82;100.00;99602.22;6006346;28;20504;-71
2023/12/23 12:31:41;;;;;;;2.70;1.20;;;;;;;2.93;100.00;99620.50;6003141;28;20101;-72
2023/12/23 12:34:36;;;;;;;3.72;0.90;;;;;;;2.93;100.00;99611.81;6002408;28;20030;-71
2023/12/23 12:37:33;;;;;;;2.07;1.13;;;;;;;2.92;100.00;99617.97;6004794;28;20068;-71
2023/12/23 12:40:34;;;;;;;2.65;1.00;;;;;;;3.00;100.00;99626.88;6001340;28;20181;-71
2023/12/23 12:43:31;;;;;;;1.83;0.75;;;;;;;2.96;100.00;99632.50;6001174;28;20479;-71
2023/12/23 12:46:32;;;;;;;2.72;1.08;;;;;;;2.96;100.00;99635.94;6003394;28;20426;-71
2023/12/23 12:49:27;;;;;;;2.58;1.10;;;;;;;3.00;100.00;99639.97;6004089;28;20667;-72
2023/12/23 12:52:22;;;;;;;1.90;0.90;;;;;;;3.02;100.00;99645.06;6002800;28;20038;-73
2023/12/23 12:55:22;;;;;;;2.43;0.87;;;;;;;3.02;100.00;99633.78;6002344;28;20027;-72
2023/12/23 12:58:18;;;;;;;2.40;0.98;;;;;;;3.09;100.00;99651.50;6001415;28;20397;-71
2023/12/23 13:01:14;;;;;;;2.47;0.98;;;;;;;3.16;100.00;99652.66;6002886;28;20038;-72
2023/12/23 13:04:10;;;;;;;1.80;0.90;;;;;;;3.10;100.00;99642.66;6001173;28;20499;-72
2023/12/23 13:07:05;;;;;;;1.63;0.77;;;;;;;3.13;100.00;99652.06;6002956;28;20039;-72
2023/12/23 13:10:01;;;;;;;5.13;2.50;;;;;;;3.15;100.00;99634.44;6003251;28;20126;-72
2023/12/23 13:12:56;;;;;;;2.00;1.20;;;;;;;3.19;100.00;99648.94;5999756;28;20405;-72
2023/12/23 13:15:51;;;;;;;3.67;1.33;;;;;;;3.25;100.00;99651.91;5999016;28;20039;-72
2023/12/23 13:18:47;;;;;;;1.98;1.10;;;;;;;3.32;100.00;99658.28;6003981;28;20030;-72
2023/12/23 13:21:42;;;;;;;8.23;3.42;;;;;;;3.32;100.00;99663.53;6002772;28;20057;-71
2023/12/23 13:24:37;;;;;;;7.27;3.37;;;;;;;3.34;100.00;99660.78;5999968;28;20034;-72
2023/12/23 13:27:33;;;;;;;3.50;2.10;;;;;;;3.34;100.00;99661.59;6003797;28;20109;-72
2023/12/23 13:30:28;;;;;;;3.70;1.50;;;;;;;3.30;100.00;99659.38;6005203;28;20069;-73
2023/12/23 13:33:23;;;;;;;3.47;1.70;;;;;;;3.36;100.00;99672.81;6002219;28;20556;-73
2023/12/23 13:36:19;;;;;;;2.20;1.03;;;;;;;3.43;100.00;99679.19;6006007;28;20038;-72
2023/12/23 13:39:14;;;;;;;3.17;1.50;;;;;;;3.40;100.00;99676.00;6006580;28;20031;-71
2023/12/23 13:42:09;;;;;;;4.67;1.37;;;;;;;3.43;100.00;99681.81;6007324;28;20109;-72
2023/12/23 13:45:05;;;;;;;3.30;1.60;;;;;;;3.47;100.00;99688.47;6008024;28;20027;-72